Phippsburg, ME

11:49 PM EDT on September 26, 2016 (GMT -0400)
South End | | Change Station

Elev 32 ft 43.88 °N, 69.82 °W | Updated 543 days ago

Cloudy
Cloudy
54 °F
Feels Like 54 °F
N
4
Wind Variable Wind from SSW
Gusts mph

Today
High -- | Low -- °F
--% Chance of Precip.
Yesterday
High -- | Low -- °F
Precip. -- in
Pressure 30.04 in
Visibility 10.0 miles
Clouds Clear
Dew Point 48 °F
Humidity 78%
Rainfall in
Snow Depth Not available.
6:31 AM 6:28 PM
Waning Crescent, 14% visible
METAR KIWI 270253Z AUTO 00000KT 10SM CLR 09/07 A3004 RMK AO2 SLP172 T00890067 58014
Pressure 30.04 in
Visibility 10.0 miles
Clouds Clear
Dew Point 48 °F
Humidity 78%
Rainfall in
Snow Depth Not available.
6:31 AM 6:28 PM
Waning Crescent, 14% visible
METAR KIWI 270253Z AUTO 00000KT 10SM CLR 09/07 A3004 RMK AO2 SLP172 T00890067 58014

10-Day Weather Forecast

Almanac

Astronomy

Sep. 26, 2016 Rise Set
Actual Time
Civil Twilight
Nautical Twilight
Astronomical Twilight
Moon
Length of Visible Light
Length of Day
Tomorrow will be .
, % of the Moon is Illuminated

Today's Extremes

State Highs State Lows

Community

WunderPhotos

Upload Photos

1,942,029 photos uploaded!

WunderBlog® & News

Nearby

Air Quality

  Air Quality AQ Index Pollutant
Not available.

Snow Depth

Station Depth Elevation

Earthquake Activity

City Distance Mag. Time & Date
Minimum magnitude displayed is 2.5.

Coastal Water Temperatures

Place Temperature

Stations

Nearby Weather Stations

Station Location Temp. Windchill Dew Point Humidity Wind Precip. Elev Updated Type
                   

Watches & Warnings

There are currently no watches in effect.